Time;durP1;ratioP1;P1;durP2;ratioP2;P2;SDS_P1;SDS_P2;PMS_P1;PMS_P2;Temp;Humidity;BMP_temperature;BMP_pressure;BME280_temperature;BME280_humidity;BME280_pressure;Samples;Min_cycle;Max_cycle;Signal;HPM_P1;HPM_P2
2022/12/30 00:01:21;;;;;;;48.40;26.50;;;;;;;2.83;100.00;101298.91;5037993;28;20029;-81
2022/12/30 00:03:47;;;;;;;34.08;22.25;;;;;;;3.77;100.00;101436.28;5041196;28;20041;-81
2022/12/30 00:06:16;;;;;;;43.22;27.33;;;;;;;3.74;100.00;101436.13;5044245;28;20794;-78
2022/12/30 00:08:46;;;;;;;41.10;26.00;;;;;;;3.08;100.00;101324.22;5043390;28;20127;-79
2022/12/30 00:11:21;;;;;;;40.25;26.25;;;;;;;3.62;100.00;101432.09;5038626;28;20141;-78
2022/12/30 00:33:40;;;;;;;49.08;27.75;;;;;;;3.07;100.00;101456.41;5065784;28;20170;-80
2022/12/30 00:36:06;;;;;;;55.97;28.95;;;;;;;2.76;100.00;101348.66;5062073;28;20204;-80
2022/12/30 00:38:31;;;;;;;51.97;28.50;;;;;;;3.54;100.00;101462.91;5060117;28;20073;-79
2022/12/30 00:43:41;;;;;;;37.47;26.52;;;;;;;3.31;100.00;101425.53;5063386;28;20556;-78
2022/12/30 00:46:09;;;;;;;52.97;29.13;;;;;;;2.79;100.00;101346.25;5060361;28;20052;-80
2022/12/30 00:56:47;;;;;;;45.95;25.80;;;;;;;2.60;100.00;101315.09;5061391;28;20446;-79
2022/12/30 00:59:13;;;;;;;44.05;25.17;;;;;;;2.90;100.00;101385.59;5059952;28;20041;-79
2022/12/30 01:01:38;;;;;;;42.70;25.67;;;;;;;3.26;100.00;101446.06;5058897;28;20037;-77
2022/12/30 01:04:04;;;;;;;40.03;26.02;;;;;;;2.42;100.00;101290.13;5053769;28;20101;-76
2022/12/30 01:06:29;;;;;;;41.10;24.10;;;;;;;2.63;100.00;101321.31;5051763;28;20517;-77
2022/12/30 01:08:55;;;;;;;42.72;26.90;;;;;;;2.95;100.00;101378.97;5056218;28;20059;-79
2022/12/30 01:11:20;;;;;;;46.15;25.08;;;;;;;2.53;100.00;101319.13;5059047;28;20762;-79
2022/12/30 01:13:45;;;;;;;49.25;25.88;;;;;;;2.13;100.00;101244.72;5058232;28;20107;-78
2022/12/30 01:16:14;;;;;;;49.75;27.50;;;;;;;3.08;100.00;101421.88;5057373;28;20052;-78
2022/12/30 01:18:40;;;;;;;47.83;29.08;;;;;;;2.33;100.00;101300.91;5063120;28;20060;-78
2022/12/30 01:21:07;;;;;;;43.47;26.20;;;;;;;2.99;100.00;101418.84;5051953;28;20064;-78
2022/12/30 01:23:33;;;;;;;47.55;28.70;;;;;;;2.83;100.00;101399.09;5062139;28;20045;-79
2022/12/30 01:26:04;;;;;;;36.45;23.58;;;;;;;2.56;100.00;101339.09;5062021;28;20028;-78
2022/12/30 01:28:35;;;;;;;37.17;24.33;;;;;;;2.21;100.00;101248.56;5063385;28;20033;-78
2022/12/30 01:31:08;;;;;;;38.65;25.67;;;;;;;2.85;100.00;101375.03;5051039;28;20044;-77
2022/12/30 01:33:34;;;;;;;45.97;24.42;;;;;;;2.92;100.00;101335.59;5063079;28;20064;-76
2022/12/30 01:36:00;;;;;;;39.90;22.77;;;;;;;3.16;100.00;101398.09;5056671;28;20151;-77
2022/12/30 01:38:28;;;;;;;38.83;22.63;;;;;;;3.12;100.00;101416.91;5062350;28;20068;-77
2022/12/30 01:40:54;;;;;;;41.00;21.65;;;;;;;3.26;100.00;101401.97;5054050;28;20071;-78
2022/12/30 01:43:19;;;;;;;43.53;25.88;;;;;;;3.26;100.00;101390.72;5066467;28;20025;-76
2022/12/30 01:45:51;;;;;;;45.78;22.08;;;;;;;2.63;100.00;101287.63;5064081;28;20048;-77
2022/12/30 01:48:27;;;;;;;36.03;20.75;;;;;;;2.29;100.00;101249.81;5053650;28;20055;-78
2022/12/30 01:51:04;;;;;;;38.75;23.67;;;;;;;2.57;100.00;101284.75;5062065;28;20047;-79
2022/12/30 01:53:34;;;;;;;40.50;24.73;;;;;;;2.49;100.00;101258.50;5066056;28;20384;-78
2022/12/30 01:56:14;;;;;;;39.38;23.17;;;;;;;2.46;100.00;101234.19;5059530;28;20033;-78
2022/12/30 01:58:42;;;;;;;36.92;22.02;;;;;;;3.22;100.00;101384.50;5059815;28;20548;-75
2022/12/30 02:01:07;;;;;;;36.35;23.15;;;;;;;3.01;100.00;101360.19;5058880;28;20083;-74
2022/12/30 02:03:39;;;;;;;33.50;21.00;;;;;;;2.22;100.00;101262.38;5062025;28;20515;-77
2022/12/30 02:06:06;;;;;;;33.67;22.17;;;;;;;2.90;100.00;101360.59;5045351;28;20432;-74
2022/12/30 02:08:34;;;;;;;37.60;23.70;;;;;;;2.09;100.00;101185.84;5065864;28;20053;-79
2022/12/30 02:11:03;;;;;;;35.67;21.73;;;;;;;3.27;100.00;101395.97;5056342;28;20447;-78
2022/12/30 02:13:28;;;;;;;35.88;23.00;;;;;;;2.44;100.00;101267.75;5054743;28;20041;-78
2022/12/30 02:16:05;;;;;;;36.63;21.27;;;;;;;3.08;100.00;101375.22;5060173;28;20067;-78
2022/12/30 02:18:46;;;;;;;29.50;18.65;;;;;;;3.33;100.00;101403.16;5040430;28;20126;-78
2022/12/30 02:21:43;;;;;;;31.55;18.00;;;;;;;3.36;100.00;101398.97;5032152;28;20044;-79
2022/12/30 02:24:42;;;;;;;44.20;23.67;;;;;;;3.24;100.00;101394.97;5037845;28;20466;-79
2022/12/30 02:27:34;;;;;;;42.10;21.48;;;;;;;3.27;100.00;101401.16;5035677;28;20057;-79
2022/12/30 02:30:21;;;;;;;30.73;18.10;;;;;;;3.30;100.00;101393.53;5033464;28;20143;-79
2022/12/30 02:32:52;;;;;;;30.40;17.90;;;;;;;3.54;100.00;101387.66;5040858;28;20056;-79
2022/12/30 02:35:48;;;;;;;35.50;20.80;;;;;;;3.51;100.00;101372.84;5037171;28;20053;-78
2022/12/30 02:38:32;;;;;;;34.33;19.20;;;;;;;3.38;100.00;101374.00;5044149;28;20056;-79
2022/12/30 02:47:07;;;;;;;27.55;19.77;;;;;;;3.15;100.00;101361.69;5035187;28;20067;-80
2022/12/30 02:49:35;;;;;;;31.08;18.73;;;;;;;3.27;100.00;101374.34;5052215;28;20650;-81
2022/12/30 02:52:14;;;;;;;33.20;19.00;;;;;;;3.00;100.00;101323.00;5059786;28;20044;-80
2022/12/30 02:54:45;;;;;;;30.67;18.33;;;;;;;3.07;100.00;101374.31;5057572;28;20772;-77
2022/12/30 02:57:22;;;;;;;32.60;18.65;;;;;;;1.92;100.00;101153.09;5046577;28;20056;-78
2022/12/30 03:05:30;;;;;;;28.90;19.33;;;;;;;3.09;100.00;101383.06;5053018;28;20522;-76
2022/12/30 03:08:12;;;;;;;33.80;21.67;;;;;;;2.89;100.00;101330.28;5056252;28;20036;-78
2022/12/30 03:13:45;;;;;;;32.20;21.20;;;;;;;2.19;100.00;101226.88;5055881;28;20424;-78
2022/12/30 03:16:21;;;;;;;32.38;21.02;;;;;;;2.96;100.00;101389.38;5037663;28;20753;-77
2022/12/30 03:18:48;;;;;;;36.78;20.30;;;;;;;3.08;100.00;101388.16;5053134;28;20049;-77
2022/12/30 03:21:16;;;;;;;37.17;23.90;;;;;;;2.96;100.00;101378.13;5056169;28;20044;-77
2022/12/30 03:29:20;;;;;;;35.35;22.23;;;;;;;3.07;100.00;101381.22;5062515;28;20075;-79
2022/12/30 03:31:46;;;;;;;39.10;20.85;;;;;;;2.18;100.00;101244.91;5058773;28;20043;-79
2022/12/30 03:34:12;;;;;;;29.77;19.50;;;;;;;2.96;100.00;101384.19;5068198;28;20173;-76
2022/12/30 03:36:43;;;;;;;35.28;21.00;;;;;;;2.19;100.00;101244.13;5064681;28;20040;-77
2022/12/30 03:39:17;;;;;;;36.72;21.38;;;;;;;2.77;100.00;101371.19;5065291;28;20048;-78
2022/12/30 03:41:47;;;;;;;38.88;21.63;;;;;;;2.05;100.00;101225.34;5056915;28;20052;-77
2022/12/30 03:44:13;;;;;;;46.38;22.35;;;;;;;2.87;100.00;101357.84;5062634;28;20123;-78
2022/12/30 03:46:41;;;;;;;36.72;23.05;;;;;;;2.33;100.00;101271.56;5068459;28;20555;-77
2022/12/30 03:49:07;;;;;;;40.72;25.67;;;;;;;2.89;100.00;101363.09;5067815;28;20063;-78
2022/12/30 03:51:33;;;;;;;37.13;22.42;;;;;;;2.92;100.00;101342.50;5065727;28;20052;-74
2022/12/30 03:53:58;;;;;;;33.70;21.80;;;;;;;2.92;100.00;101373.59;5065335;28;20056;-80
2022/12/30 03:56:24;;;;;;;47.78;22.35;;;;;;;2.69;100.00;101329.38;5059526;28;20044;-76
2022/12/30 03:58:49;;;;;;;44.13;21.85;;;;;;;1.96;100.00;101227.50;5067161;28;20040;-80
2022/12/30 04:01:14;;;;;;;38.10;24.60;;;;;;;2.02;100.00;101249.38;5064553;28;20048;-79
2022/12/30 04:03:40;;;;;;;34.47;20.25;;;;;;;2.59;100.00;101363.44;5060881;28;20568;-76
2022/12/30 04:06:06;;;;;;;35.72;24.25;;;;;;;2.76;100.00;101379.78;5056233;28;20426;-76
2022/12/30 04:08:31;;;;;;;38.28;21.88;;;;;;;2.64;100.00;101369.72;5036979;28;20049;-76
2022/12/30 04:10:57;;;;;;;37.65;21.13;;;;;;;2.88;100.00;101379.47;5039949;28;20709;-76
2022/12/30 04:13:22;;;;;;;43.03;23.63;;;;;;;2.21;100.00;101265.81;5041486;28;20104;-77
2022/12/30 04:15:49;;;;;;;39.20;21.35;;;;;;;2.37;100.00;101326.97;5040527;28;20057;-76
2022/12/30 04:18:15;;;;;;;48.63;23.85;;;;;;;2.08;100.00;101305.72;5057686;28;20051;-75
2022/12/30 04:20:41;;;;;;;39.30;22.40;;;;;;;2.53;100.00;101384.75;5059830;28;20421;-77
2022/12/30 04:23:06;;;;;;;38.10;22.52;;;;;;;1.86;100.00;101296.91;5056443;28;20076;-76
2022/12/30 04:25:31;;;;;;;39.90;21.98;;;;;;;2.54;100.00;101372.69;5067374;28;20024;-76
2022/12/30 04:27:57;;;;;;;48.38;23.42;;;;;;;1.67;100.00;101258.91;5061046;28;20182;-78
2022/12/30 04:30:24;;;;;;;45.03;23.70;;;;;;;2.61;100.00;101384.25;5060194;28;20049;-78
2022/12/30 04:32:49;;;;;;;38.72;22.30;;;;;;;2.60;100.00;101377.25;5065666;28;20051;-77
2022/12/30 04:35:15;;;;;;;36.58;25.17;;;;;;;2.91;100.00;101421.97;5066809;28;20052;-78
2022/12/30 04:37:41;;;;;;;35.22;22.83;;;;;;;2.75;100.00;101402.22;5060816;28;20025;-78
2022/12/30 04:40:07;;;;;;;37.42;20.42;;;;;;;2.87;100.00;101424.34;5059296;28;20432;-78
2022/12/30 04:42:32;;;;;;;34.22;20.63;;;;;;;1.92;100.00;101287.66;5062138;28;20052;-77
2022/12/30 04:44:58;;;;;;;41.50;24.77;;;;;;;2.33;100.00;101375.13;5063817;28;20068;-77
2022/12/30 04:47:23;;;;;;;38.17;21.85;;;;;;;2.81;100.00;101417.19;5059195;28;20476;-77
2022/12/30 04:49:49;;;;;;;40.03;23.65;;;;;;;2.67;100.00;101402.66;5062426;28;20127;-78
2022/12/30 04:52:14;;;;;;;45.85;23.25;;;;;;;1.11;100.00;101157.84;5056127;28;20068;-79
2022/12/30 04:54:40;;;;;;;51.08;25.55;;;;;;;2.38;100.00;101411.63;5062414;28;21468;-78
2022/12/30 04:57:05;;;;;;;36.15;21.10;;;;;;;2.42;100.00;101409.25;5061792;28;20045;-79
2022/12/30 04:59:31;;;;;;;42.85;24.25;;;;;;;1.92;100.00;101317.06;5061252;28;20049;-78
2022/12/30 05:01:56;;;;;;;40.95;22.45;;;;;;;2.21;100.00;101359.88;5055589;28;20036;-80
2022/12/30 05:04:23;;;;;;;40.17;23.42;;;;;;;1.79;100.00;101265.50;5057141;28;20094;-78
2022/12/30 05:06:48;;;;;;;41.50;23.20;;;;;;;2.06;100.00;101307.34;5064010;28;20037;-79
2022/12/30 05:09:14;;;;;;;41.22;22.70;;;;;;;2.41;100.00;101386.78;5053343;28;20419;-78
2022/12/30 05:11:39;;;;;;;40.78;24.02;;;;;;;1.37;100.00;101239.28;5055755;28;20391;-78
2022/12/30 05:14:04;;;;;;;37.05;24.83;;;;;;;1.55;100.00;101278.09;5060402;28;20142;-78
2022/12/30 05:16:30;;;;;;;41.72;22.52;;;;;;;2.40;100.00;101405.69;5063275;28;20091;-78
2022/12/30 05:18:55;;;;;;;36.50;22.80;;;;;;;2.09;100.00;101334.28;5056644;28;20098;-77
2022/12/30 05:21:21;;;;;;;42.10;24.73;;;;;;;1.95;100.00;101293.03;5057517;28;20075;-75
2022/12/30 05:26:31;;;;;;;37.97;24.75;;;;;;;2.17;100.00;101351.91;5040242;28;20119;-75
2022/12/30 05:28:57;;;;;;;41.72;24.00;;;;;;;1.62;100.00;101264.66;5040642;28;20045;-75
2022/12/30 05:31:22;;;;;;;38.92;24.13;;;;;;;2.47;100.00;101423.31;5060566;28;20412;-78
2022/12/30 05:33:48;;;;;;;37.63;23.83;;;;;;;1.74;100.00;101272.16;5065414;28;20075;-78
2022/12/30 05:36:14;;;;;;;47.60;24.85;;;;;;;2.42;100.00;101387.66;5077701;28;20070;-78
2022/12/30 05:38:40;;;;;;;50.03;26.40;;;;;;;1.73;100.00;101285.88;5063559;28;20385;-78
2022/12/30 05:41:09;;;;;;;46.42;26.30;;;;;;;2.62;100.00;101440.41;5059791;28;20089;-77
2022/12/30 05:43:35;;;;;;;45.20;25.92;;;;;;;2.43;100.00;101386.81;5060531;28;20063;-81
2022/12/30 05:46:00;;;;;;;39.78;25.17;;;;;;;2.44;100.00;101411.94;5059411;28;20564;-81
2022/12/30 05:48:26;;;;;;;42.25;23.45;;;;;;;2.42;100.00;101403.19;5054713;28;20041;-80
2022/12/30 05:50:51;;;;;;;46.55;26.52;;;;;;;2.11;100.00;101324.91;5062394;28;20057;-80
2022/12/30 05:53:17;;;;;;;47.25;25.42;;;;;;;2.10;100.00;101324.81;5065531;28;23571;-77
2022/12/30 05:55:43;;;;;;;33.10;22.52;;;;;;;2.78;100.00;101429.97;5055516;28;20321;-76
2022/12/30 05:58:09;;;;;;;39.63;23.58;;;;;;;2.77;100.00;101432.50;5058243;28;20397;-75
2022/12/30 06:00:34;;;;;;;32.58;22.55;;;;;;;1.94;100.00;101301.56;5059188;28;20055;-77
2022/12/30 06:03:00;;;;;;;45.58;24.75;;;;;;;2.59;100.00;101404.00;5058545;28;20045;-76
2022/12/30 06:05:25;;;;;;;40.47;22.92;;;;;;;2.00;100.00;101278.59;5054857;28;20113;-76
2022/12/30 06:07:51;;;;;;;40.05;25.38;;;;;;;2.79;100.00;101413.63;5063860;28;20039;-78
2022/12/30 06:10:16;;;;;;;36.00;25.45;;;;;;;1.96;100.00;101280.13;5054919;28;20507;-75
2022/12/30 06:12:42;;;;;;;37.72;22.98;;;;;;;2.76;100.00;101426.41;5059492;28;20747;-78
2022/12/30 06:15:08;;;;;;;35.90;25.75;;;;;;;2.37;100.00;101391.72;5061319;28;20055;-78
2022/12/30 06:17:34;;;;;;;41.05;22.70;;;;;;;1.74;100.00;101260.09;5064570;28;20057;-78
2022/12/30 06:20:00;;;;;;;40.53;27.40;;;;;;;1.82;100.00;101261.34;5057664;28;20047;-78
2022/12/30 06:22:25;;;;;;;39.75;22.58;;;;;;;2.86;100.00;101444.22;5062402;28;20036;-77
2022/12/30 06:24:51;;;;;;;42.50;20.80;;;;;;;3.00;100.00;101431.00;5058056;28;20043;-78
2022/12/30 06:27:16;;;;;;;46.10;23.38;;;;;;;2.32;100.00;101332.81;5058597;28;20527;-78
2022/12/30 06:29:42;;;;;;;36.10;22.88;;;;;;;2.99;100.00;101434.41;5062599;28;20056;-77
2022/12/30 06:32:07;;;;;;;37.65;22.67;;;;;;;2.99;100.00;101426.63;5060005;28;20040;-77
2022/12/30 06:34:33;;;;;;;56.92;22.98;;;;;;;2.33;100.00;101306.09;5064270;28;20082;-77
2022/12/30 06:36:59;;;;;;;41.75;23.60;;;;;;;2.35;100.00;101320.84;5062237;28;20048;-77
2022/12/30 06:39:24;;;;;;;44.22;20.73;;;;;;;3.09;100.00;101416.78;5064866;28;20041;-77
2022/12/30 06:41:49;;;;;;;42.88;23.77;;;;;;;2.39;100.00;101294.25;5062772;28;20055;-77
2022/12/30 06:44:15;;;;;;;40.45;23.75;;;;;;;2.86;100.00;101420.88;5063894;28;20486;-79
2022/12/30 06:46:40;;;;;;;34.10;23.02;;;;;;;3.22;100.00;101432.91;5054366;28;20033;-77
2022/12/30 06:49:06;;;;;;;61.83;22.10;;;;;;;3.13;100.00;101384.97;5054450;28;20496;-78
2022/12/30 06:51:31;;;;;;;28.52;19.88;;;;;;;2.61;100.00;101265.94;5051257;28;20142;-80
2022/12/30 06:53:57;;;;;;;35.33;22.17;;;;;;;2.84;100.00;101300.69;5051433;28;20052;-79
2022/12/30 06:56:22;;;;;;;41.75;21.33;;;;;;;3.68;100.00;101437.59;5065342;28;20044;-78
2022/12/30 06:58:48;;;;;;;33.70;19.60;;;;;;;3.65;100.00;101427.91;5059539;28;20045;-78
2022/12/30 07:01:13;;;;;;;37.65;22.02;;;;;;;2.99;100.00;101308.25;5058651;28;20045;-78
2022/12/30 07:03:39;;;;;;;35.33;21.02;;;;;;;3.07;100.00;101299.13;5063149;28;20052;-77
2022/12/30 07:06:05;;;;;;;38.53;21.60;;;;;;;3.91;100.00;101418.72;5061622;28;20131;-76
2022/12/30 07:08:31;;;;;;;28.85;18.58;;;;;;;3.10;100.00;101317.41;5061557;28;20045;-78
2022/12/30 07:10:56;;;;;;;35.42;19.40;;;;;;;3.68;100.00;101394.34;5057428;28;20033;-78
2022/12/30 07:13:21;;;;;;;33.38;18.75;;;;;;;3.19;100.00;101322.13;5061852;28;20040;-79
2022/12/30 07:15:47;;;;;;;26.13;17.75;;;;;;;3.73;100.00;101412.72;5060600;28;20055;-78
2022/12/30 07:18:13;;;;;;;35.22;20.30;;;;;;;3.72;100.00;101393.66;5058171;28;20555;-78
2022/12/30 07:20:38;;;;;;;30.90;19.63;;;;;;;4.09;100.00;101431.56;5060657;28;20079;-79
2022/12/30 07:23:04;;;;;;;30.17;19.35;;;;;;;3.50;100.00;101328.66;5056828;28;20043;-78
2022/12/30 07:25:30;;;;;;;29.20;20.23;;;;;;;3.43;100.00;101306.75;5056939;28;20433;-81
2022/12/30 07:28:00;;;;;;;37.25;22.25;;;;;;;4.17;100.00;101470.88;5052645;28;20493;-81
2022/12/30 07:30:27;;;;;;;38.05;21.67;;;;;;;3.45;100.00;101315.50;5050222;28;20218;-79
2022/12/30 07:32:52;;;;;;;35.33;20.92;;;;;;;3.59;100.00;101344.63;5057182;28;20067;-80
2022/12/30 07:35:18;;;;;;;41.05;20.80;;;;;;;4.22;100.00;101465.06;5055237;28;20717;-77
2022/12/30 07:37:43;;;;;;;37.22;21.50;;;;;;;4.29;100.00;101465.31;5056285;28;20162;-82
2022/12/30 07:40:09;;;;;;;35.58;22.92;;;;;;;3.62;100.00;101336.97;5052215;28;20052;-74
2022/12/30 07:42:35;;;;;;;36.17;21.48;;;;;;;3.69;100.00;101358.88;5041013;28;20060;-74
2022/12/30 07:45:00;;;;;;;32.53;21.42;;;;;;;4.48;100.00;101482.56;5047077;28;20057;-74
2022/12/30 07:47:32;;;;;;;35.17;22.35;;;;;;;4.31;100.00;101463.66;5053172;28;20041;-74
2022/12/30 07:49:59;;;;;;;33.05;22.50;;;;;;;4.49;100.00;101464.44;5056193;28;20037;-75
2022/12/30 07:52:25;;;;;;;35.15;21.70;;;;;;;4.63;100.00;101478.00;5063654;28;20029;-79
2022/12/30 07:54:50;;;;;;;36.55;22.63;;;;;;;4.12;100.00;101330.44;5068285;28;20416;-80
2022/12/30 07:57:16;;;;;;;36.33;23.45;;;;;;;4.99;100.00;101482.94;5065632;28;20052;-79
2022/12/30 07:59:41;;;;;;;34.90;24.83;;;;;;;4.62;100.00;101440.72;5063149;28;20044;-79
2022/12/30 08:02:11;;;;;;;37.90;22.52;;;;;;;4.78;100.00;101478.63;5054111;28;20039;-77
2022/12/30 08:04:36;;;;;;;33.00;21.30;;;;;;;4.93;100.00;101461.88;5054784;28;20041;-80
2022/12/30 08:07:02;;;;;;;33.35;20.83;;;;;;;5.06;100.00;101467.63;5061582;28;20056;-86
2022/12/30 08:09:28;;;;;;;30.75;19.67;;;;;;;4.70;100.00;101380.34;5058241;28;20048;-81
2022/12/30 08:11:53;;;;;;;75.93;25.08;;;;;;;5.25;100.00;101460.53;5047529;28;20163;-82
2022/12/30 08:14:19;;;;;;;39.45;24.85;;;;;;;5.35;100.00;101480.88;5059364;28;20060;-80
2022/12/30 08:16:44;;;;;;;41.08;22.05;;;;;;;4.74;100.00;101357.13;5051610;28;20040;-81
2022/12/30 08:19:10;;;;;;;40.97;23.77;;;;;;;4.94;100.00;101398.63;5061309;28;20049;-82
2022/12/30 08:21:35;;;;;;;39.47;23.33;;;;;;;5.13;100.00;101436.63;5049407;28;20071;-81
2022/12/30 08:24:01;;;;;;;34.58;22.05;;;;;;;4.53;100.00;101314.72;5064775;28;20052;-79
2022/12/30 08:29:21;;;;;;;38.22;24.55;;;;;;;4.32;100.00;101234.22;5486552;22;20757;-76
2022/12/30 08:32:21;;;;;;;58.42;25.60;;;;;;;5.77;100.00;101467.69;5008598;28;20293;-80
2022/12/30 08:35:10;;;;;;;43.55;24.52;;;;;;;5.28;100.00;101412.09;4991712;28;20092;-74
2022/12/30 08:37:53;;;;;;;37.03;25.17;;;;;;;5.66;100.00;101441.25;5018559;28;20144;-75
2022/12/30 08:40:33;;;;;;;42.78;23.23;;;;;;;4.34;100.00;101212.66;5011052;28;20057;-74
2022/12/30 08:43:00;;;;;;;37.72;23.83;;;;;;;5.36;100.00;101388.97;4994817;28;20062;-78
2022/12/30 08:45:26;;;;;;;37.88;25.42;;;;;;;5.74;100.00;101449.34;5003779;28;20050;-86
2022/12/30 08:47:52;;;;;;;41.13;23.48;;;;;;;5.32;100.00;101334.16;4999414;28;20615;-83
2022/12/30 08:50:18;;;;;;;34.78;24.13;;;;;;;6.08;100.00;101451.47;4997662;28;20057;-82
2022/12/30 08:52:43;;;;;;;37.05;22.98;;;;;;;6.05;100.00;101451.38;5004311;28;20062;-82
2022/12/30 08:55:09;;;;;;;38.50;22.80;;;;;;;5.28;100.00;101287.19;4998973;28;20058;-75
2022/12/30 08:57:38;;;;;;;32.05;22.08;;;;;;;6.24;100.00;101429.44;5003415;28;20610;-78
2022/12/30 09:00:05;;;;;;;36.47;22.40;;;;;;;6.17;100.00;101419.63;4998984;28;20096;-79
2022/12/30 09:02:32;;;;;;;36.80;21.80;;;;;;;5.77;100.00;101331.41;4998194;28;20815;-80
2022/12/30 09:04:58;;;;;;;39.15;23.65;;;;;;;6.20;100.00;101406.69;5002413;28;20052;-80
2022/12/30 09:07:23;;;;;;;37.20;21.15;;;;;;;6.05;100.00;101362.78;4998681;28;20046;-75
2022/12/30 09:09:49;;;;;;;39.67;23.17;;;;;;;6.73;100.00;101444.09;5016493;28;20107;-80
2022/12/30 09:12:14;;;;;;;35.88;24.75;;;;;;;6.59;100.00;101447.97;5019204;28;20056;-86
2022/12/30 09:14:40;;;;;;;36.13;23.80;;;;;;;6.39;100.00;101374.34;5014183;28;20205;-84
2022/12/30 09:17:05;;;;;;;31.02;22.30;;;;;;;6.61;100.00;101408.91;5006029;28;20574;-81
2022/12/30 09:19:31;;;;;;;36.83;23.77;;;;;;;6.50;100.00;101419.88;5000586;28;20116;-80
2022/12/30 09:21:56;;;;;;;32.03;21.63;;;;;;;6.74;100.00;101442.34;5001448;28;20050;-81
2022/12/30 09:24:22;;;;;;;37.33;25.75;;;;;;;6.73;100.00;101451.03;5006190;28;20038;-83
2022/12/30 09:26:47;;;;;;;42.10;21.65;;;;;;;6.20;100.00;101310.28;5002450;28;20058;-82
2022/12/30 09:29:16;;;;;;;35.53;26.15;;;;;;;6.92;100.00;101435.13;5002908;28;20130;-82
2022/12/30 09:31:41;;;;;;;32.63;23.50;;;;;;;7.03;100.00;101451.13;5001532;28;21100;-84
2022/12/30 09:34:07;;;;;;;43.13;28.42;;;;;;;6.78;100.00;101391.19;4995607;28;20089;-83
2022/12/30 09:36:32;;;;;;;34.67;24.95;;;;;;;7.06;100.00;101399.00;4996335;28;20067;-88
2022/12/30 09:38:58;;;;;;;43.10;25.67;;;;;;;7.29;100.00;101412.75;5003179;28;20515;-86
2022/12/30 09:44:54;;;;;;;35.45;23.67;;;;;;;7.21;100.00;101424.72;5003997;28;20064;-88
2022/12/30 09:47:32;;;;;;;34.93;24.60;;;;;;;7.19;100.00;101421.16;5013271;28;20049;-87
2022/12/30 09:50:05;;;;;;;30.90;23.75;;;;;;;6.48;100.00;101306.81;4998541;28;20093;-86
2022/12/30 09:52:49;;;;;;;34.28;23.30;;;;;;;7.43;100.00;101412.28;5005538;28;20789;-87
2022/12/30 09:55:24;;;;;;;29.90;23.83;;;;;;;7.47;100.00;101411.50;5005017;28;20041;-85
2022/12/30 09:57:56;;;;;;;33.45;23.90;;;;;;;7.53;100.00;101378.63;4999270;28;20045;-83
2022/12/30 10:00:23;;;;;;;43.85;25.40;;;;;;;7.16;100.00;101290.56;5002938;28;20041;-88
2022/12/30 10:03:04;;;;;;;35.65;27.70;;;;;;;7.69;100.00;101413.91;5006256;28;20080;-86
2022/12/30 10:06:06;;;;;;;32.22;25.17;;;;;;;7.59;100.00;101410.16;5001519;28;20049;-88
2022/12/30 10:08:57;;;;;;;35.80;23.83;;;;;;;7.88;100.00;101398.72;4998227;28;20520;-86
2022/12/30 10:11:38;;;;;;;40.38;26.75;;;;;;;7.38;100.00;101290.31;4997662;28;20042;-83
2022/12/30 10:14:12;;;;;;;41.45;27.45;;;;;;;8.24;100.00;101391.84;4996480;28;20100;-81
2022/12/30 10:17:13;;;;;;;38.22;27.23;;;;;;;7.65;100.00;101257.91;4998086;28;20041;-83
2022/12/30 10:20:01;;;;;;;38.15;26.27;;;;;;;8.43;100.00;101379.28;4996210;28;20134;-85
2022/12/30 10:22:35;;;;;;;31.25;23.52;;;;;;;8.52;100.00;101387.34;5007782;28;20794;-83
2022/12/30 10:25:29;;;;;;;37.05;22.88;;;;;;;8.64;100.00;101374.53;5004774;28;20061;-83
2022/12/30 10:27:56;;;;;;;44.78;25.58;;;;;;;8.55;100.00;101314.16;5000798;28;20088;-80
2022/12/30 10:30:26;;;;;;;33.97;24.75;;;;;;;8.90;100.00;101334.09;4997207;28;20584;-85
2022/12/30 10:33:06;;;;;;;36.72;24.92;;;;;;;8.98;100.00;101349.13;5004308;28;20069;-81
2022/12/30 10:35:37;;;;;;;31.15;24.25;;;;;;;7.71;100.00;101152.72;5002386;28;20045;-78
2022/12/30 10:38:13;;;;;;;34.38;22.95;;;;;;;9.37;100.00;101352.56;4998067;28;20134;-78
2022/12/30 10:41:03;;;;;;;29.40;22.02;;;;;;;9.61;100.00;101336.41;5002243;28;20037;-78
2022/12/30 10:43:47;;;;;;;35.83;22.90;;;;;;;9.81;100.00;101324.56;4990750;28;20061;-74
2022/12/30 10:46:22;;;;;;;27.38;19.15;;;;;;;13.19;100.00;101319.53;4996949;28;20053;-74
2022/12/30 10:48:47;;;;;;;33.47;24.05;;;;;;;11.96;100.00;101327.53;5000179;28;20136;-76
2022/12/30 10:51:15;;;;;;;40.25;27.48;;;;;;;11.42;100.00;101252.47;5005391;28;20810;-76
2022/12/30 10:53:44;;;;;;;35.75;24.05;;;;;;;10.96;100.00;101229.22;4998901;28;20081;-75
2022/12/30 10:56:20;;;;;;;43.45;26.52;;;;;;;11.89;100.00;101220.47;4986885;28;20050;-75
2022/12/30 10:58:47;;;;;;;31.13;22.52;;;;;;;12.08;100.00;101328.47;5002934;28;20190;-72
2022/12/30 11:01:23;;;;;;;36.47;22.60;;;;;;;12.17;100.00;101324.16;5005102;28;20054;-73
2022/12/30 11:03:50;;;;;;;28.77;21.88;;;;;;;11.92;100.00;101343.25;5001196;28;20046;-74
2022/12/30 11:06:37;;;;;;;28.55;22.00;;;;;;;11.10;100.00;101211.00;5004359;28;20168;-75
2022/12/30 11:09:11;;;;;;;30.65;22.27;;;;;;;11.83;100.00;101326.47;5000826;28;20049;-75
2022/12/30 11:14:53;;;;;;;29.65;21.23;;;;;;;11.93;100.00;101319.59;5001672;28;20053;-74
2022/12/30 11:17:23;;;;;;;31.55;21.02;;;;;;;11.39;100.00;101258.56;4998954;28;20047;-74
2022/12/30 11:19:54;;;;;;;57.90;41.33;;;;;;;12.58;100.00;101309.56;5003613;28;20492;-74
2022/12/30 11:22:21;;;;;;;35.80;23.27;;;;;;;12.23;100.00;101265.47;5002189;28;20141;-73
2022/12/30 11:25:35;;;;;;;28.42;20.05;;;;;;;11.90;100.00;101268.72;5001756;28;20042;-73
2022/12/30 11:28:20;;;;;;;28.85;18.45;;;;;;;11.69;100.00;101262.38;4977329;28;20533;-74
2022/12/30 11:30:51;;;;;;;33.33;17.80;;;;;;;11.70;100.00;101329.84;5003242;28;20125;-73
2022/12/30 11:33:24;;;;;;;78.13;67.80;;;;;;;12.83;100.00;101281.59;5000817;28;20085;-75
2022/12/30 11:35:51;;;;;;;32.45;19.38;;;;;;;12.21;100.00;101319.81;4995867;28;20695;-76
2022/12/30 11:38:38;;;;;;;30.55;18.75;;;;;;;11.05;100.00;101189.06;4999304;28;20042;-76
2022/12/30 11:41:18;;;;;;;32.95;18.67;;;;;;;11.55;100.00;101309.53;5014391;28;20167;-76
2022/12/30 11:43:44;;;;;;;27.20;18.48;;;;;;;11.37;100.00;101304.09;5015659;28;20034;-75
2022/12/30 11:46:13;;;;;;;29.60;20.88;;;;;;;10.88;100.00;101251.84;5007828;28;20054;-76
2022/12/30 11:48:53;;;;;;;30.10;20.88;;;;;;;11.11;100.00;101288.03;5002299;28;20124;-75
2022/12/30 11:51:43;;;;;;;27.08;21.20;;;;;;;11.25;100.00;101285.56;5010970;28;20477;-73
2022/12/30 11:54:11;;;;;;;26.73;18.75;;;;;;;11.08;100.00;101283.63;5006038;28;20050;-74
2022/12/30 11:56:59;;;;;;;25.23;18.10;;;;;;;11.27;100.00;101287.34;5002578;28;20050;-73
2022/12/30 11:59:35;;;;;;;26.98;20.92;;;;;;;11.01;100.00;101292.28;5007044;28;20046;-72
2022/12/30 12:02:05;;;;;;;27.10;18.35;;;;;;;10.99;100.00;101287.00;5007046;28;20145;-72
2022/12/30 12:04:41;;;;;;;29.42;21.67;;;;;;;10.03;100.00;101165.88;5003108;28;20026;-73
2022/12/30 12:07:36;;;;;;;30.92;21.08;;;;;;;10.78;100.00;101292.00;5002536;28;20084;-73
2022/12/30 12:10:24;;;;;;;27.27;20.13;;;;;;;9.87;100.00;101166.50;5002401;28;20085;-73
2022/12/30 12:13:01;;;;;;;28.13;20.45;;;;;;;10.07;100.00;101190.41;5000119;28;20046;-72
2022/12/30 12:15:47;;;;;;;28.25;20.70;;;;;;;10.51;100.00;101240.91;5009896;28;20066;-75
2022/12/30 12:18:21;;;;;;;29.15;21.77;;;;;;;10.53;100.00;101233.03;4998259;28;20046;-80
2022/12/30 12:20:46;;;;;;;;;;;;;;;10.78;100.00;101289.38;5003594;28;20540;-82
2022/12/30 12:23:27;;;;;;;33.53;22.90;;;;;;;9.81;100.00;101169.94;5015452;28;20016;-82
2022/12/30 12:26:04;;;;;;;32.20;22.50;;;;;;;10.81;100.00;101293.78;5003938;28;20117;-84